Time;durP1;ratioP1;P1;durP2;ratioP2;P2;SDS_P1;SDS_P2;PMS_P1;PMS_P2;Temp;Humidity;BMP_temperature;BMP_pressure;BME280_temperature;BME280_humidity;BME280_pressure;Samples;Min_cycle;Max_cycle;Signal;HPM_P1;HPM_P2
2022/03/13 00:02:12;;;;;;;4.10;2.50;;;3.90;95.60;;;;;;6096299;23;20824;-71
2022/03/13 00:04:40;;;;;;;1.83;1.60;;;3.80;96.60;;;;;;6121465;23;20734;-70
2022/03/13 00:07:19;;;;;;;2.27;2.03;;;3.80;96.70;;;;;;6121627;23;20418;-71
2022/03/13 00:09:48;;;;;;;3.20;1.97;;;3.80;96.90;;;;;;6121920;23;20410;-70
2022/03/13 00:12:29;;;;;;;1.50;1.50;;;3.90;96.70;;;;;;6121588;23;20873;-71
2022/03/13 00:14:57;;;;;;;2.43;2.27;;;4.00;96.40;;;;;;6121074;23;20910;-70
2022/03/13 00:17:28;;;;;;;2.70;1.87;;;3.80;97.10;;;;;;6121105;23;20452;-71
2022/03/13 00:19:59;;;;;;;2.80;2.03;;;3.70;97.80;;;;;;6121251;23;20400;-70
2022/03/13 00:22:28;;;;;;;3.63;2.17;;;3.80;97.70;;;;;;6121351;23;20430;-70
2022/03/13 00:24:55;;;;;;;2.30;1.53;;;3.80;97.10;;;;;;6121444;23;20421;-70
2022/03/13 00:27:23;;;;;;;1.87;1.77;;;3.80;96.40;;;;;;6121459;23;20449;-69
2022/03/13 00:29:50;;;;;;;1.83;1.77;;;3.70;96.90;;;;;;6121270;23;20460;-69
2022/03/13 00:32:19;;;;;;;2.30;1.97;;;3.30;97.90;;;;;;6121657;23;20772;-69
2022/03/13 00:34:46;;;;;;;2.17;1.90;;;3.30;98.00;;;;;;6121939;23;20510;-69
2022/03/13 00:37:13;;;;;;;1.50;1.40;;;3.10;98.00;;;;;;6121782;23;20763;-69
2022/03/13 00:39:41;;;;;;;1.87;1.77;;;3.20;98.00;;;;;;6121288;23;20477;-69
2022/03/13 00:42:08;;;;;;;3.17;1.63;;;3.30;98.00;;;;;;6121202;23;20444;-70
2022/03/13 00:44:36;;;;;;;1.77;1.70;;;3.40;97.10;;;;;;6121433;23;20423;-69
2022/03/13 00:47:05;;;;;;;1.60;1.60;;;3.10;98.00;;;;;;6121221;23;20424;-70
2022/03/13 00:49:32;;;;;;;2.93;2.80;;;2.90;98.00;;;;;;6121420;23;20408;-69
2022/03/13 00:52:00;;;;;;;1.20;1.00;;;2.80;98.00;;;;;;6121660;23;20422;-69
2022/03/13 00:54:28;;;;;;;1.53;1.53;;;2.80;98.00;;;;;;6121479;23;20453;-69
2022/03/13 00:56:55;;;;;;;1.37;1.33;;;3.00;97.70;;;;;;6121541;23;20415;-69
2022/03/13 00:59:22;;;;;;;2.97;1.83;;;3.10;96.80;;;;;;6096240;23;20999;-69
2022/03/13 01:01:50;;;;;;;1.73;1.27;;;3.20;96.40;;;;;;6121564;23;20437;-69
2022/03/13 01:04:18;;;;;;;3.00;2.80;;;3.20;96.10;;;;;;6121216;23;20408;-70
2022/03/13 01:06:46;;;;;;;1.70;1.60;;;2.90;97.00;;;;;;6121192;23;20461;-70
2022/03/13 01:09:13;;;;;;;3.67;2.20;;;2.90;97.70;;;;;;6121256;23;20748;-69
2022/03/13 01:11:40;;;;;;;1.60;1.50;;;2.90;97.80;;;;;;6120716;23;20404;-69
2022/03/13 01:14:09;;;;;;;3.73;2.33;;;2.90;98.00;;;;;;6121248;23;20441;-70
2022/03/13 01:16:39;;;;;;;2.27;2.07;;;2.70;98.00;;;;;;6120951;23;20457;-70
2022/03/13 01:19:08;;;;;;;5.13;2.70;;;2.50;98.00;;;;;;6121347;23;20411;-70
2022/03/13 01:21:37;;;;;;;3.33;2.17;;;2.60;98.00;;;;;;6121035;23;20418;-70
2022/03/13 01:24:27;;;;;;;3.83;1.70;;;2.60;98.00;;;;;;6121248;23;20812;-69
2022/03/13 01:26:57;;;;;;;1.83;1.73;;;2.60;98.00;;;;;;6121215;23;20463;-69
2022/03/13 01:29:24;;;;;;;1.60;1.47;;;2.60;98.00;;;;;;6120921;23;20419;-70
2022/03/13 01:31:51;;;;;;;2.83;2.63;;;2.60;98.00;;;;;;6121108;23;20434;-70
2022/03/13 01:34:54;;;;;;;2.07;1.87;;;2.50;98.00;;;;;;6121254;23;20418;-70
2022/03/13 01:37:31;;;;;;;1.30;1.10;;;2.30;98.00;;;;;;6113813;23;20433;-70
2022/03/13 01:39:59;;;;;;;3.63;2.50;;;2.40;98.00;;;;;;6120960;23;20990;-70
2022/03/13 01:42:27;;;;;;;1.20;1.10;;;2.40;98.00;;;;;;6120896;23;20447;-70
2022/03/13 01:44:54;;;;;;;1.53;1.43;;;2.60;98.00;;;;;;6121231;23;20451;-69
2022/03/13 01:47:21;;;;;;;1.70;1.60;;;2.70;98.00;;;;;;6120927;23;20930;-69
2022/03/13 01:49:48;;;;;;;1.27;1.23;;;2.70;98.00;;;;;;6120957;23;20417;-69
2022/03/13 01:52:16;;;;;;;2.40;2.13;;;2.80;98.00;;;;;;6120972;23;20449;-69
2022/03/13 01:54:47;;;;;;;1.70;1.60;;;2.60;98.00;;;;;;6121244;23;20494;-70
2022/03/13 01:57:19;;;;;;;1.60;1.50;;;2.50;98.00;;;;;;6121053;23;20402;-70
2022/03/13 01:59:50;;;;;;;1.97;1.90;;;2.50;98.00;;;;;;6121137;23;20431;-72
2022/03/13 02:02:17;;;;;;;3.00;2.80;;;2.50;98.00;;;;;;6120724;23;20499;-72
2022/03/13 02:04:45;;;;;;;3.43;2.00;;;2.50;98.00;;;;;;6120766;23;20487;-72
2022/03/13 02:07:12;;;;;;;1.60;1.50;;;2.60;98.00;;;;;;6120039;23;20422;-72
2022/03/13 02:09:39;;;;;;;2.53;2.30;;;2.60;98.00;;;;;;6120874;23;20403;-69
2022/03/13 02:12:09;;;;;;;2.40;1.73;;;2.40;98.00;;;;;;6120573;23;20401;-69
2022/03/13 02:14:36;;;;;;;2.80;1.93;;;2.20;98.00;;;;;;6120918;23;20989;-69
2022/03/13 02:17:06;;;;;;;2.47;1.63;;;2.40;98.00;;;;;;6120781;23;20488;-69
2022/03/13 02:19:34;;;;;;;3.37;3.20;;;2.40;98.00;;;;;;6120139;23;20398;-69
2022/03/13 02:22:01;;;;;;;2.80;1.60;;;2.30;98.00;;;;;;6120577;23;20485;-69
2022/03/13 02:24:29;;;;;;;2.60;2.40;;;2.30;98.00;;;;;;6120781;23;20657;-69
2022/03/13 02:27:00;;;;;;;5.60;3.60;;;2.40;98.00;;;;;;6120819;23;20429;-69
2022/03/13 02:29:27;;;;;;;1.77;1.67;;;2.20;98.00;;;;;;6120600;23;20497;-69
2022/03/13 02:31:55;;;;;;;2.40;2.20;;;2.20;98.00;;;;;;6120444;23;20446;-72
2022/03/13 02:34:22;;;;;;;3.57;2.07;;;2.30;98.00;;;;;;6120501;23;20487;-72
2022/03/13 02:36:58;;;;;;;1.60;1.60;;;2.30;98.00;;;;;;6120526;23;20419;-72
2022/03/13 02:39:25;;;;;;;1.77;1.67;;;2.10;98.00;;;;;;6120661;23;20426;-72
2022/03/13 02:41:54;;;;;;;3.13;2.10;;;2.10;98.00;;;;;;6121067;23;20407;-72
2022/03/13 02:44:21;;;;;;;1.77;1.77;;;2.00;98.00;;;;;;6120450;23;20449;-71
2022/03/13 02:46:57;;;;;;;1.30;1.30;;;1.90;98.00;;;;;;6120432;23;20450;-72
2022/03/13 02:49:26;;;;;;;1.70;1.60;;;2.00;98.00;;;;;;6120558;23;20701;-71
2022/03/13 02:51:56;;;;;;;1.40;1.30;;;2.00;98.00;;;;;;6120224;23;20413;-72
2022/03/13 02:54:24;;;;;;;1.30;1.20;;;2.10;98.00;;;;;;6120192;23;20472;-70
2022/03/13 02:56:53;;;;;;;1.20;1.20;;;2.00;98.00;;;;;;6120465;23;20913;-70
2022/03/13 02:59:21;;;;;;;1.20;1.20;;;2.10;98.00;;;;;;6120603;23;20471;-70
2022/03/13 03:01:50;;;;;;;1.43;1.40;;;2.10;98.00;;;;;;6121437;23;20441;-71
2022/03/13 03:04:18;;;;;;;1.70;1.17;;;2.40;98.00;;;;;;6121408;23;20437;-69
2022/03/13 03:07:01;;;;;;;3.20;2.00;;;2.50;98.00;;;;;;6121509;23;20743;-69
2022/03/13 03:09:30;;;;;;;3.70;1.90;;;2.30;98.00;;;;;;6121470;23;20893;-69
2022/03/13 03:11:59;;;;;;;1.53;1.43;;;2.40;98.00;;;;;;6121289;23;20417;-69
2022/03/13 03:14:26;;;;;;;7.30;1.93;;;2.30;98.00;;;;;;6121764;23;20422;-69
2022/03/13 03:16:55;;;;;;;2.80;2.03;;;2.00;98.00;;;;;;6121810;23;20739;-69
2022/03/13 03:19:22;;;;;;;1.40;1.40;;;1.70;98.00;;;;;;6121664;23;20406;-69
2022/03/13 03:21:49;;;;;;;1.87;1.77;;;1.70;98.00;;;;;;6122180;23;20493;-69
2022/03/13 03:24:19;;;;;;;1.20;1.10;;;1.40;98.00;;;;;;6121804;23;20967;-69
2022/03/13 03:26:47;;;;;;;3.30;1.80;;;1.60;98.00;;;;;;6122041;23;20416;-69
2022/03/13 03:29:16;;;;;;;1.47;1.40;;;1.40;98.00;;;;;;6121633;23;20425;-69
2022/03/13 03:31:44;;;;;;;1.70;1.70;;;1.30;98.00;;;;;;6121654;23;20917;-69
2022/03/13 03:34:14;;;;;;;2.00;1.80;;;1.40;98.00;;;;;;6120950;23;20461;-69
2022/03/13 03:36:48;;;;;;;2.40;2.20;;;1.40;98.00;;;;;;6096186;23;20429;-69
2022/03/13 03:39:16;;;;;;;2.43;2.20;;;1.40;98.00;;;;;;6121532;23;20520;-69
2022/03/13 03:41:44;;;;;;;2.50;2.30;;;1.30;98.00;;;;;;6121436;23;20398;-69
2022/03/13 03:44:12;;;;;;;2.80;2.60;;;1.30;98.00;;;;;;6121067;23;20512;-69
2022/03/13 03:46:41;;;;;;;1.77;1.73;;;1.30;98.00;;;;;;6121140;23;20426;-69
2022/03/13 03:49:08;;;;;;;2.60;2.40;;;1.40;98.00;;;;;;6121322;23;20414;-69
2022/03/13 03:51:36;;;;;;;2.13;1.50;;;1.40;98.00;;;;;;6121473;23;20958;-69
2022/03/13 03:54:03;;;;;;;2.80;2.33;;;1.40;98.00;;;;;;6121644;23;20398;-69
2022/03/13 03:56:31;;;;;;;1.87;1.77;;;1.30;98.00;;;;;;6121207;23;20432;-69
2022/03/13 03:58:57;;;;;;;1.27;1.23;;;1.50;98.00;;;;;;6121664;23;20417;-69
2022/03/13 04:01:24;;;;;;;2.83;2.07;;;1.60;98.00;;;;;;6120910;23;20441;-69
2022/03/13 04:03:53;;;;;;;1.70;1.70;;;1.80;98.00;;;;;;6121556;23;20506;-69
2022/03/13 04:06:20;;;;;;;3.27;2.20;;;1.80;98.00;;;;;;6121061;23;20425;-69
2022/03/13 04:08:48;;;;;;;1.20;1.10;;;1.80;98.00;;;;;;6121709;23;20398;-69
2022/03/13 04:11:16;;;;;;;2.43;2.23;;;1.80;98.00;;;;;;6121276;23;20421;-69
2022/03/13 04:13:44;;;;;;;4.23;2.20;;;1.70;98.00;;;;;;6121358;23;20433;-68
2022/03/13 04:16:12;;;;;;;2.80;1.70;;;1.70;98.00;;;;;;6121432;23;20719;-69
2022/03/13 04:18:39;;;;;;;1.30;1.20;;;1.40;98.00;;;;;;6121784;23;20715;-69
2022/03/13 04:21:07;;;;;;;2.07;1.37;;;1.20;98.00;;;;;;6121237;23;20424;-69
2022/03/13 04:23:36;;;;;;;2.37;2.17;;;1.20;98.00;;;;;;6121628;23;20477;-69
2022/03/13 04:26:03;;;;;;;1.40;1.30;;;1.30;98.00;;;;;;6121725;23;20432;-69
2022/03/13 04:28:31;;;;;;;1.37;1.27;;;1.30;98.00;;;;;;6121374;23;20992;-69
2022/03/13 04:31:00;;;;;;;1.87;1.77;;;1.20;98.00;;;;;;6121213;23;20413;-70
2022/03/13 04:33:28;;;;;;;1.20;1.10;;;1.40;98.00;;;;;;6120854;23;20417;-70
2022/03/13 04:36:00;;;;;;;1.37;1.23;;;1.40;98.00;;;;;;6120512;23;20405;-69
2022/03/13 04:38:29;;;;;;;2.07;1.93;;;1.40;98.00;;;;;;6120588;23;20398;-70
2022/03/13 04:40:57;;;;;;;3.10;2.83;;;1.40;98.00;;;;;;6120979;23;20401;-70
2022/03/13 04:43:26;;;;;;;2.33;2.13;;;1.20;98.00;;;;;;6121187;23;20457;-70
2022/03/13 04:45:53;;;;;;;1.50;1.47;;;1.10;98.00;;;;;;6120766;23;20437;-70
2022/03/13 04:48:21;;;;;;;1.77;1.67;;;1.10;98.00;;;;;;6121458;23;20406;-70
2022/03/13 04:50:49;;;;;;;4.27;2.20;;;1.00;98.00;;;;;;6121250;23;20432;-70
2022/03/13 04:53:16;;;;;;;2.30;2.20;;;1.10;98.00;;;;;;6121448;23;20394;-70
2022/03/13 04:55:45;;;;;;;2.43;1.87;;;1.20;98.00;;;;;;6121299;23;20401;-70
2022/03/13 04:58:13;;;;;;;2.20;1.67;;;1.10;98.00;;;;;;6121015;23;20474;-70
2022/03/13 05:00:40;;;;;;;1.70;1.37;;;1.00;98.00;;;;;;6095676;23;20402;-70
2022/03/13 05:03:09;;;;;;;1.30;1.17;;;0.90;98.00;;;;;;6121297;23;20417;-70
2022/03/13 05:05:38;;;;;;;1.87;1.70;;;0.90;98.00;;;;;;6121134;23;20748;-70
2022/03/13 05:08:06;;;;;;;3.13;1.93;;;1.00;98.00;;;;;;6121129;23;20398;-70
2022/03/13 05:10:37;;;;;;;1.40;1.30;;;1.00;98.00;;;;;;6120606;23;20957;-70
2022/03/13 05:13:07;;;;;;;1.97;1.80;;;1.00;98.00;;;;;;6121146;23;21038;-69
2022/03/13 05:15:36;;;;;;;1.20;1.10;;;1.10;98.00;;;;;;6121001;23;20398;-69
2022/03/13 05:18:03;;;;;;;1.60;1.37;;;1.10;98.00;;;;;;6121699;23;20402;-69
2022/03/13 05:20:31;;;;;;;5.23;2.70;;;1.30;98.00;;;;;;6121567;23;20467;-69
2022/03/13 05:22:58;;;;;;;1.37;1.37;;;1.40;98.00;;;;;;6120827;23;20796;-69
2022/03/13 05:25:26;;;;;;;2.03;1.83;;;1.40;98.00;;;;;;6121083;23;20428;-69
2022/03/13 05:27:53;;;;;;;2.90;2.27;;;1.40;98.00;;;;;;6121179;23;20431;-70
2022/03/13 05:30:24;;;;;;;1.20;1.00;;;1.20;98.00;;;;;;6120758;23;20425;-70
2022/03/13 05:32:51;;;;;;;1.60;1.50;;;1.20;98.00;;;;;;6121389;23;20732;-70
2022/03/13 05:35:18;;;;;;;1.83;1.53;;;1.30;98.00;;;;;;6120973;23;20417;-70
2022/03/13 05:37:46;;;;;;;1.30;1.17;;;1.20;98.00;;;;;;6120942;23;20459;-69
2022/03/13 05:40:16;;;;;;;1.47;1.43;;;1.20;98.00;;;;;;6120666;23;20475;-70
2022/03/13 05:42:45;;;;;;;1.80;1.53;;;0.90;98.00;;;;;;6121202;23;20421;-69
2022/03/13 05:45:13;;;;;;;1.40;1.37;;;0.80;98.00;;;;;;6120983;23;20506;-70
2022/03/13 05:47:46;;;;;;;3.33;1.87;;;0.60;98.00;;;;;;6120796;23;20432;-70
2022/03/13 05:50:13;;;;;;;1.60;1.40;;;0.80;98.00;;;;;;6121027;23;20475;-69
2022/03/13 05:52:43;;;;;;;1.47;1.27;;;0.90;98.00;;;;;;6121242;23;20763;-70
2022/03/13 05:55:10;;;;;;;3.10;2.50;;;0.80;98.00;;;;;;6120853;23;20425;-70
2022/03/13 05:57:38;;;;;;;1.30;1.23;;;0.80;98.00;;;;;;6121161;23;20417;-69
2022/03/13 06:00:07;;;;;;;1.40;1.37;;;0.80;98.00;;;;;;6120862;23;20457;-69
2022/03/13 06:02:36;;;;;;;1.40;1.30;;;0.80;98.00;;;;;;6121469;23;20467;-69
2022/03/13 06:05:06;;;;;;;1.80;1.70;;;1.00;98.00;;;;;;6121185;23;20437;-69
2022/03/13 06:07:34;;;;;;;1.73;1.50;;;1.00;98.00;;;;;;6121519;23;20409;-70
2022/03/13 06:10:03;;;;;;;1.97;1.60;;;1.10;98.00;;;;;;6121396;23;20441;-69
2022/03/13 06:12:31;;;;;;;1.90;1.53;;;1.20;98.00;;;;;;6121505;23;20441;-69
2022/03/13 06:14:58;;;;;;;1.47;1.47;;;1.30;98.00;;;;;;6121115;23;20407;-69
2022/03/13 06:17:25;;;;;;;1.57;1.53;;;1.30;98.00;;;;;;6120431;23;20421;-69
2022/03/13 06:19:55;;;;;;;1.40;1.17;;;1.00;98.00;;;;;;6120426;23;20417;-70
2022/03/13 06:22:24;;;;;;;5.20;2.13;;;1.00;98.00;;;;;;6120790;23;20417;-70
2022/03/13 06:24:51;;;;;;;1.57;1.17;;;1.00;98.00;;;;;;6120570;23;20446;-70
2022/03/13 06:27:18;;;;;;;1.33;1.33;;;0.90;98.00;;;;;;6120343;23;20417;-70
2022/03/13 06:29:45;;;;;;;1.73;1.47;;;1.00;98.00;;;;;;6120623;23;20417;-70
2022/03/13 06:32:12;;;;;;;1.53;1.40;;;1.10;98.00;;;;;;6120518;23;20454;-69
2022/03/13 06:34:41;;;;;;;1.43;1.30;;;0.90;98.00;;;;;;6120707;23;20448;-70
2022/03/13 06:37:09;;;;;;;3.77;1.73;;;0.80;98.00;;;;;;6121867;23;20397;-70
2022/03/13 06:39:37;;;;;;;1.97;1.87;;;0.90;98.00;;;;;;6121622;23;20468;-70
2022/03/13 06:42:05;;;;;;;1.30;1.30;;;1.00;98.00;;;;;;6121453;23;20420;-70
2022/03/13 06:44:32;;;;;;;1.20;1.10;;;1.10;98.00;;;;;;6121810;23;20445;-70
2022/03/13 06:47:00;;;;;;;2.50;1.67;;;1.20;98.00;;;;;;6121528;23;20447;-70
2022/03/13 06:49:27;;;;;;;1.20;1.00;;;1.40;98.00;;;;;;6121678;23;20419;-69
2022/03/13 06:51:54;;;;;;;3.73;2.57;;;1.40;98.00;;;;;;6122012;23;20471;-70
2022/03/13 06:54:21;;;;;;;1.30;1.10;;;1.50;98.00;;;;;;6121968;23;20508;-70
2022/03/13 06:56:50;;;;;;;1.90;1.57;;;1.60;98.00;;;;;;6121801;23;20417;-70
2022/03/13 06:59:17;;;;;;;2.57;1.50;;;1.60;98.00;;;;;;6122159;23;20398;-70
2022/03/13 07:01:44;;;;;;;1.60;1.33;;;1.70;98.00;;;;;;6122092;23;20475;-70
2022/03/13 07:04:12;;;;;;;3.27;2.07;;;1.50;98.00;;;;;;6121737;23;20503;-70
2022/03/13 07:06:39;;;;;;;1.77;1.60;;;1.50;98.00;;;;;;6121585;23;20479;-71
2022/03/13 07:09:06;;;;;;;1.40;1.30;;;1.60;98.00;;;;;;6121529;23;20406;-71
2022/03/13 07:11:34;;;;;;;1.30;1.30;;;1.70;98.00;;;;;;6121162;23;20917;-71
2022/03/13 07:14:07;;;;;;;1.20;1.10;;;1.90;98.00;;;;;;6121992;23;20398;-71
2022/03/13 07:16:34;;;;;;;5.63;2.33;;;2.10;98.00;;;;;;6121629;23;20401;-70
2022/03/13 07:19:05;;;;;;;1.87;1.73;;;2.20;98.00;;;;;;6121440;23;20420;-71
2022/03/13 07:21:32;;;;;;;2.00;1.90;;;2.20;98.00;;;;;;6121703;23;20409;-70
2022/03/13 07:24:04;;;;;;;1.70;1.60;;;2.30;98.00;;;;;;6121668;23;20444;-71
2022/03/13 07:26:31;;;;;;;2.63;1.77;;;2.20;98.00;;;;;;6072082;23;20417;-70
2022/03/13 07:29:01;;;;;;;1.40;1.37;;;2.30;98.00;;;;;;6121621;23;20467;-70
2022/03/13 07:31:30;;;;;;;1.37;1.23;;;2.30;98.00;;;;;;6121522;23;20421;-71
2022/03/13 07:33:57;;;;;;;1.47;1.43;;;2.40;98.00;;;;;;6121417;23;20407;-68
2022/03/13 07:36:24;;;;;;;1.93;1.73;;;2.30;98.00;;;;;;6121572;23;20479;-71
2022/03/13 07:38:51;;;;;;;1.37;1.30;;;2.30;98.00;;;;;;6121410;23;20421;-72
2022/03/13 07:41:18;;;;;;;1.30;1.30;;;2.40;98.00;;;;;;6121349;23;20417;-72
2022/03/13 07:43:45;;;;;;;3.10;1.83;;;2.60;98.00;;;;;;6121683;23;20463;-72
2022/03/13 07:46:12;;;;;;;1.70;1.60;;;2.80;98.00;;;;;;6120797;23;20479;-72
2022/03/13 07:48:44;;;;;;;1.93;1.73;;;2.90;97.40;;;;;;6121802;23;20516;-72
2022/03/13 07:51:13;;;;;;;1.30;1.20;;;3.00;97.40;;;;;;6122109;23;20533;-72
2022/03/13 07:53:40;;;;;;;5.53;2.50;;;3.20;97.10;;;;;;6121636;23;20908;-72
2022/03/13 07:56:08;;;;;;;2.30;2.10;;;3.30;96.10;;;;;;6121482;23;20403;-70
2022/03/13 07:58:35;;;;;;;2.07;1.70;;;3.40;96.20;;;;;;6121429;23;20787;-70
2022/03/13 08:01:02;;;;;;;1.37;1.37;;;3.60;95.90;;;;;;6121660;23;20467;-70
2022/03/13 08:03:35;;;;;;;1.87;1.83;;;3.80;95.40;;;;;;6121389;23;20796;-69
2022/03/13 08:06:04;;;;;;;2.03;1.47;;;4.00;95.20;;;;;;6121237;23;20431;-70
2022/03/13 08:08:31;;;;;;;1.80;1.70;;;4.20;94.40;;;;;;6121423;23;20476;-70
2022/03/13 08:10:58;;;;;;;2.30;2.03;;;4.20;94.10;;;;;;6121671;23;20482;-70
2022/03/13 08:13:25;;;;;;;2.30;1.50;;;4.30;94.90;;;;;;6121500;23;20767;-70
2022/03/13 08:15:52;;;;;;;3.77;1.87;;;4.40;93.50;;;;;;6121202;23;20429;-72
2022/03/13 08:18:20;;;;;;;1.73;1.63;;;4.60;93.50;;;;;;6121409;23;20455;-71
2022/03/13 08:20:47;;;;;;;2.53;1.60;;;4.70;92.30;;;;;;6121457;23;20447;-71
2022/03/13 08:23:16;;;;;;;2.77;2.63;;;4.90;91.80;;;;;;6095985;23;20424;-70
2022/03/13 08:25:43;;;;;;;4.03;1.53;;;5.10;91.30;;;;;;6121016;23;20447;-69
2022/03/13 08:28:10;;;;;;;1.83;1.50;;;5.40;91.10;;;;;;6121545;23;20479;-70
2022/03/13 08:30:37;;;;;;;3.80;2.30;;;5.60;90.20;;;;;;6121326;23;20425;-70
2022/03/13 08:33:05;;;;;;;2.33;1.40;;;5.70;90.00;;;;;;6121049;23;20415;-70
2022/03/13 08:35:32;;;;;;;1.70;1.20;;;5.70;89.40;;;;;;6121169;23;20460;-71
2022/03/13 08:37:59;;;;;;;1.70;1.47;;;5.90;89.20;;;;;;6121543;23;20508;-70
2022/03/13 08:40:27;;;;;;;1.83;1.40;;;6.10;88.00;;;;;;6121544;23;20417;-70
2022/03/13 08:42:54;;;;;;;1.93;1.53;;;6.30;87.00;;;;;;6121423;23;20415;-70
2022/03/13 08:45:22;;;;;;;1.20;1.00;;;6.50;86.30;;;;;;6120885;23;20947;-70
2022/03/13 08:47:49;;;;;;;2.23;1.40;;;6.70;84.70;;;;;;6120978;23;20482;-70
2022/03/13 08:50:17;;;;;;;2.00;1.90;;;6.70;84.30;;;;;;6121090;23;20793;-70
2022/03/13 08:52:45;;;;;;;2.33;1.60;;;6.80;84.40;;;;;;6120593;23;20428;-70
2022/03/13 08:55:13;;;;;;;2.17;2.07;;;7.00;84.20;;;;;;6121125;23;20398;-70
2022/03/13 08:57:42;;;;;;;1.67;1.60;;;7.20;83.20;;;;;;6120754;23;20399;-69
2022/03/13 09:00:11;;;;;;;2.80;1.93;;;7.30;82.00;;;;;;6120732;23;20809;-69
2022/03/13 09:02:38;;;;;;;1.70;1.67;;;7.50;83.00;;;;;;6095837;23;20404;-70
2022/03/13 09:05:06;;;;;;;1.97;1.50;;;7.80;81.90;;;;;;6120123;23;20446;-70
2022/03/13 09:07:34;;;;;;;3.23;1.73;;;7.90;81.80;;;;;;6119692;23;20776;-69
2022/03/13 09:10:02;;;;;;;3.00;2.57;;;8.20;80.20;;;;;;6119932;23;20439;-69
2022/03/13 09:12:30;;;;;;;2.13;1.67;;;8.40;79.50;;;;;;6120191;23;20404;-69
2022/03/13 09:15:09;;;;;;;4.07;1.93;;;8.50;79.40;;;;;;6120132;23;20918;-69
2022/03/13 09:17:36;;;;;;;1.50;1.43;;;8.70;78.90;;;;;;6093904;23;20436;-70
2022/03/13 09:20:05;;;;;;;2.90;1.63;;;9.00;78.40;;;;;;6119816;23;20490;-70
2022/03/13 09:22:32;;;;;;;2.60;1.63;;;9.20;77.90;;;;;;6118943;23;20561;-69
2022/03/13 09:24:59;;;;;;;6.53;1.80;;;9.30;76.20;;;;;;6119981;23;20448;-69
2022/03/13 09:27:27;;;;;;;3.47;1.83;;;9.50;75.20;;;;;;6119596;23;20497;-69
2022/03/13 09:29:57;;;;;;;3.50;1.70;;;9.60;76.70;;;;;;6120095;23;20743;-69
2022/03/13 09:32:26;;;;;;;2.60;2.50;;;9.70;76.60;;;;;;6119731;23;20409;-69
2022/03/13 09:34:53;;;;;;;2.17;1.70;;;10.00;75.30;;;;;;6119523;23;20451;-69
2022/03/13 09:37:21;;;;;;;2.03;1.53;;;10.10;74.40;;;;;;6119567;23;20501;-70
2022/03/13 09:39:48;;;;;;;2.50;1.80;;;10.40;73.70;;;;;;6119908;23;20397;-71
2022/03/13 09:42:16;;;;;;;3.13;1.80;;;10.70;73.30;;;;;;6119650;23;20427;-71
2022/03/13 09:44:43;;;;;;;1.63;1.53;;;10.90;72.90;;;;;;6119496;23;20472;-70
2022/03/13 09:47:11;;;;;;;1.87;1.40;;;11.20;73.00;;;;;;6119182;23;20432;-71
2022/03/13 09:49:42;;;;;;;4.27;2.10;;;11.30;71.50;;;;;;6118581;23;20421;-71
2022/03/13 09:52:09;;;;;;;2.93;1.47;;;11.60;70.70;;;;;;6119639;23;20438;-71
2022/03/13 09:54:36;;;;;;;1.80;1.70;;;11.70;70.70;;;;;;6120015;23;20412;-71
2022/03/13 09:57:05;;;;;;;2.03;1.70;;;12.00;70.50;;;;;;6119583;23;20444;-70
2022/03/13 09:59:33;;;;;;;4.20;2.80;;;12.30;70.10;;;;;;6119903;23;20450;-71
2022/03/13 10:02:00;;;;;;;3.10;2.50;;;12.40;70.20;;;;;;6119530;23;20406;-71
2022/03/13 10:04:27;;;;;;;2.60;1.90;;;12.60;69.20;;;;;;6119717;23;20463;-71
2022/03/13 10:07:04;;;;;;;2.83;1.70;;;12.80;68.80;;;;;;6119694;23;20510;-70
2022/03/13 10:09:33;;;;;;;1.40;1.30;;;13.10;68.40;;;;;;6119344;23;20406;-69
2022/03/13 10:12:09;;;;;;;4.90;2.87;;;13.40;68.60;;;;;;6119525;23;20407;-70
2022/03/13 10:14:38;;;;;;;1.90;1.80;;;13.80;68.30;;;;;;6119487;23;20427;-69
2022/03/13 10:17:07;;;;;;;3.17;2.17;;;13.90;68.30;;;;;;6119670;23;20737;-69
2022/03/13 10:19:34;;;;;;;4.13;2.53;;;14.10;67.40;;;;;;6119613;23;20404;-71
2022/03/13 10:22:07;;;;;;;3.17;2.77;;;14.30;66.10;;;;;;6119394;23;20420;-70
2022/03/13 10:24:42;;;;;;;2.40;1.87;;;14.40;66.60;;;;;;6119808;23;20407;-70
2022/03/13 10:27:11;;;;;;;2.77;1.90;;;14.70;65.30;;;;;;6118904;23;20909;-70
2022/03/13 10:29:41;;;;;;;3.50;2.40;;;14.80;66.10;;;;;;6120057;23;20489;-70
2022/03/13 10:32:09;;;;;;;3.50;2.23;;;15.10;65.60;;;;;;6119625;23;21199;-70
2022/03/13 10:34:37;;;;;;;4.37;2.67;;;15.40;64.80;;;;;;6119871;23;20404;-72
2022/03/13 10:37:06;;;;;;;5.80;2.83;;;15.60;64.70;;;;;;6119489;23;20742;-70
2022/03/13 10:39:34;;;;;;;2.03;1.90;;;15.80;63.20;;;;;;6119196;23;20457;-70
2022/03/13 10:42:03;;;;;;;6.07;2.80;;;16.00;63.30;;;;;;6093726;23;21089;-71
2022/03/13 10:44:34;;;;;;;4.50;1.97;;;16.10;64.70;;;;;;6119340;23;20452;-70
2022/03/13 10:47:05;;;;;;;4.27;2.77;;;16.20;62.30;;;;;;6118318;23;20523;-72
2022/03/13 10:49:37;;;;;;;3.20;2.53;;;16.40;62.70;;;;;;6117660;23;20408;-70
2022/03/13 10:52:28;;;;;;;3.90;2.53;;;16.50;62.30;;;;;;6118752;23;20397;-71
2022/03/13 10:54:57;;;;;;;3.83;2.30;;;16.60;62.70;;;;;;6119126;23;20439;-72
2022/03/13 10:57:24;;;;;;;3.63;2.53;;;16.70;62.20;;;;;;6119209;23;20880;-71
2022/03/13 11:00:09;;;;;;;4.20;2.53;;;16.70;62.10;;;;;;6119619;23;20432;-71
2022/03/13 11:02:36;;;;;;;5.07;2.93;;;16.90;61.60;;;;;;6119150;23;20405;-71
2022/03/13 11:05:05;;;;;;;3.10;2.10;;;17.00;62.40;;;;;;6119616;23;20864;-71
2022/03/13 11:07:34;;;;;;;2.90;2.63;;;17.30;61.80;;;;;;6119473;23;20409;-71
2022/03/13 11:10:06;;;;;;;3.83;2.53;;;17.50;61.40;;;;;;6119261;23;20413;-71
2022/03/13 11:12:34;;;;;;;3.20;2.33;;;17.80;59.30;;;;;;6119488;23;20459;-71
2022/03/13 11:15:02;;;;;;;2.70;2.10;;;17.90;59.00;;;;;;6118720;23;20899;-71
2022/03/13 11:17:32;;;;;;;3.90;2.70;;;18.00;60.60;;;;;;6119017;23;20460;-71
2022/03/13 11:20:00;;;;;;;4.73;3.07;;;18.20;60.40;;;;;;6119458;23;20406;-71
2022/03/13 11:22:29;;;;;;;8.80;3.00;;;18.40;61.10;;;;;;6120763;23;20421;-71
2022/03/13 11:25:01;;;;;;;4.77;2.87;;;18.70;58.90;;;;;;6120525;23;20421;-72
2022/03/13 11:27:28;;;;;;;4.77;2.70;;;18.80;59.60;;;;;;6120128;23;20872;-72
2022/03/13 11:29:57;;;;;;;6.70;2.50;;;18.90;58.20;;;;;;6120146;23;20471;-72
2022/03/13 11:32:36;;;;;;;4.23;2.50;;;19.20;57.40;;;;;;6120288;23;20454;-72
2022/03/13 11:35:21;;;;;;;10.37;4.03;;;19.40;58.40;;;;;;6120521;23;20401;-72
2022/03/13 11:37:50;;;;;;;3.70;2.27;;;19.50;57.40;;;;;;6120499;23;20691;-71
2022/03/13 11:40:21;;;;;;;5.20;2.70;;;19.60;58.40;;;;;;6095023;23;20405;-72
2022/03/13 11:42:49;;;;;;;4.20;3.00;;;19.60;57.80;;;;;;6120730;23;20406;-71
2022/03/13 11:45:34;;;;;;;9.20;4.20;;;19.80;57.90;;;;;;6120530;23;20432;-72
2022/03/13 11:48:40;;;;;;;5.97;2.83;;;20.00;56.60;;;;;;6091380;23;20425;-72
2022/03/13 11:51:07;;;;;;;5.30;2.80;;;20.20;56.40;;;;;;6093492;23;20433;-72
2022/03/13 11:53:45;;;;;;;6.97;2.77;;;20.20;56.10;;;;;;6091640;23;20406;-72
2022/03/13 11:56:27;;;;;;;4.50;2.50;;;20.30;56.60;;;;;;6091086;23;20402;-72
2022/03/13 11:58:59;;;;;;;5.30;2.83;;;20.50;55.40;;;;;;6091603;23;20804;-73
2022/03/13 12:01:34;;;;;;;3.97;2.30;;;20.70;56.90;;;;;;6091390;23;20729;-73
2022/03/13 12:04:24;;;;;;;4.10;2.73;;;20.70;56.00;;;;;;6091629;23;20398;-71
2022/03/13 12:06:55;;;;;;;5.97;2.57;;;20.60;56.50;;;;;;6091131;23;20753;-73
2022/03/13 12:09:30;;;;;;;10.50;4.03;;;20.80;55.50;;;;;;6091452;23;20403;-71
2022/03/13 12:12:04;;;;;;;8.83;4.47;;;21.00;56.30;;;;;;6066092;23;20425;-72
2022/03/13 12:14:56;;;;;;;13.73;4.40;;;20.90;55.80;;;;;;6091855;23;20426;-72
2022/03/13 12:17:26;;;;;;;5.70;2.77;;;21.20;55.90;;;;;;6105050;23;20481;-72
2022/03/13 12:19:55;;;;;;;4.97;2.87;;;21.30;55.00;;;;;;6091502;23;20510;-72
2022/03/13 12:22:25;;;;;;;8.53;4.33;;;21.20;56.50;;;;;;6091017;23;20909;-72
2022/03/13 12:24:54;;;;;;;5.53;3.00;;;21.40;55.20;;;;;;6091061;23;20426;-72
2022/03/13 12:27:23;;;;;;;9.50;3.90;;;21.40;55.00;;;;;;6090813;23;21029;-71
2022/03/13 12:29:58;;;;;;;6.90;3.27;;;21.40;55.00;;;;;;6091432;23;20410;-71
2022/03/13 12:32:32;;;;;;;6.60;4.07;;;21.60;54.90;;;;;;6091198;23;20425;-71
2022/03/13 12:35:00;;;;;;;9.30;4.17;;;21.70;54.20;;;;;;6091374;23;20402;-72
2022/03/13 12:37:27;;;;;;;8.97;3.50;;;21.60;55.10;;;;;;6091091;23;20924;-71
2022/03/13 12:39:57;;;;;;;8.60;4.27;;;21.50;54.30;;;;;;6091637;23;20941;-72
2022/03/13 12:42:28;;;;;;;6.13;3.57;;;21.80;54.70;;;;;;6091113;23;20417;-72
2022/03/13 12:45:01;;;;;;;7.70;3.60;;;21.90;54.20;;;;;;6065891;23;20746;-72
2022/03/13 12:47:28;;;;;;;5.43;2.73;;;22.10;53.30;;;;;;6114859;23;20787;-72
2022/03/13 12:49:58;;;;;;;5.17;2.93;;;22.40;53.20;;;;;;6120056;23;20417;-72
2022/03/13 12:52:25;;;;;;;5.67;3.50;;;22.30;53.40;;;;;;6120038;23;20883;-72
2022/03/13 12:55:06;;;;;;;12.50;3.87;;;22.60;54.50;;;;;;6120472;23;20413;-72
2022/03/13 12:57:35;;;;;;;8.30;4.60;;;22.90;53.30;;;;;;6120291;23;20409;-72
2022/03/13 13:00:02;;;;;;;7.20;3.53;;;22.70;52.20;;;;;;6120178;23;20463;-72
2022/03/13 13:02:32;;;;;;;4.80;3.20;;;22.50;51.70;;;;;;6120501;23;20409;-73
2022/03/13 13:05:01;;;;;;;4.40;3.00;;;22.70;51.70;;;;;;6120266;23;20917;-72
2022/03/13 13:07:30;;;;;;;7.57;3.60;;;23.30;51.00;;;;;;6120273;23;20456;-71